Havelock, North Carolina
Current Conditions -  °F | °C
As of 8:54 AM on Thursday 29 Jan 2015 (Local Time) from KNKT Reporting Station
Scattered Clouds Scattered Clouds  
Wind Chill: 35°   Ceiling: Unl
Heat Index: 35°   Visibility: 10mi
Dew Point: 21°   Wind: 0mph
Humidity: 57%   Direction: NA
Pressure: 30.39"   Gusts: NA
Location:  34.88°N, 76.9°W
Report Text: KNKT 291354Z 00000KT 10SM SCT150 SCT200 02/M06 A3039 RMK AO2 SLP288 T00171061 $
Loading
Personal Weather Stations






























Interactive Weather Map New forecast layout! Learn more

10-Day Weather Forecast

Advertisements
Track Severe Weather on mobile